Airfield :
LOGIN :

Register | Disclaimer

   EN    FR    IT 

 










Legend :    VFR   Marginal VFR   IFR   Intensive IFR   Very Intensive IFR
Visi :
Ceiling :
>= 8 km
>= 3000ft
5 to 8 km
1000 to 3000 ft
1500m to 5 km
500 to 1000 ft
800 to 1500m
200 to 500 ft
< 800m
< 200 ft
Symbols :   Thunderstorms  Fog  Heavy snow  Heavy precipitations  Wind > 20 kt
SIGMETs :     Misc.  Thunderstorms  Icing  Turbulence  Mountain Waves  Volcanic Ashes






- Airport Elevation : 135 ft
- IATA code : EDI


EGPH - Edinburgh

CURRENT METAR :
  • 052020Z VRB02KT CAVOK 01/M00 Q1042

EXPIRED METARs :
  • 051950Z 21003KT 170V240 CAVOK 02/M01 Q1042
  • 051920Z 12004KT 100V160 CAVOK 04/01 Q1043
  • 051850Z 12005KT CAVOK 03/00 Q1043
  • 051820Z 14003KT 090V210 CAVOK 04/00 Q1043
  • 051750Z 17004KT 130V220 CAVOK 05/01 Q1043

TAF TAF EGPH
Valid from the 05 at 18:00 until the 06 at 18:00 UTC


051655Z 0518/0618 22008KT 9999 FEW030
PROB40
TEMPO 0522/0606 23015G25KT
PROB30
TEMPO 0610/0615 6000 -RADZ BKN012
ATIS : +44 131 339 2823



MET'MAP, your aeronautical weather chart ! - Copyright ORBIFLY December 2007 - Disclaimer

ORBIFLY MET'MAP TEAM :

Programming & Development : Alexandra Zaïnal
Original concept : Baudouin d'Aumeries
Technical & hardware support : Manuel Goepfert
Assistance : Marc-Olivier Méhu




SOURCES & CREDITS :

   NOAA